Capitol Logistics 983

Operating for DHL



LGTS
Makedonia Airport
Thessaloniki, GR
LGAV
Eleftherios Venizelos International Airport
Athens, GR

Activity Log

Date Flight Route Aircraft Duration
01/03/2022 CPX983 TSL1E TSL L617 AGISA UL617 SKP UM749 ROPOX ROPO1C A30F 0h 50m

Route Details

Aircraft Information
Group: European Fleet
Types: A30F,A31F,B738
Route Data
Demand: V
Distance: 162nm
Duration: 1h 05m
Recm'd Route: TSL1E TSL L617 AGISA UL617 SKP UM749 ROPOX ROPO1C
Origin Wx: LGTS 270650Z 27005KT CAVOK 24/19 Q1019 NOSIG
Dest. Wx: LGAV 270650Z 03008KT 360V070 CAVOK 27/14 Q1018 NOSIG
Notes:

Financial History
Total Freight: 48,462lbs
Average Load: 48,462lbs/flt
Fuel Used: 9,538lbs
Avg. Fuel Used: 9,538lbs/flt
Fuel Expense: $3,624
Avg. Fuel Expense: $3,624
Avg. Fuel Cost: $0.38/lbs
Total Gross Income: $98,911
Pilot Pay: $259
Total Expenses: $15,019
Total Revenue: $80,138
Average Revenue: $98,910.95